sensor_id;sensor_type;location;lat;lon;timestamp;P1;durP1;ratioP1;P2;durP2;ratioP2
9834;SDS011;69850;50.942;13.748;2023-07-08T00:02:39;8.02;;;5.60;;
9834;SDS011;69850;50.942;13.748;2023-07-08T00:06:01;8.00;;;5.20;;
9834;SDS011;69850;50.942;13.748;2023-07-08T00:09:22;10.45;;;5.78;;
9834;SDS011;69850;50.942;13.748;2023-07-08T00:12:44;8.70;;;5.32;;
9834;SDS011;69850;50.942;13.748;2023-07-08T00:16:09;8.00;;;5.30;;
9834;SDS011;69850;50.942;13.748;2023-07-08T00:19:34;8.65;;;5.40;;
9834;SDS011;69850;50.942;13.748;2023-07-08T00:22:55;6.53;;;5.25;;
9834;SDS011;69850;50.942;13.748;2023-07-08T00:26:19;6.65;;;5.57;;
9834;SDS011;69850;50.942;13.748;2023-07-08T00:29:42;8.60;;;5.70;;
9834;SDS011;69850;50.942;13.748;2023-07-08T00:33:05;10.40;;;5.78;;
9834;SDS011;69850;50.942;13.748;2023-07-08T00:36:26;10.55;;;6.25;;
9834;SDS011;69850;50.942;13.748;2023-07-08T00:39:47;6.63;;;5.50;;
9834;SDS011;69850;50.942;13.748;2023-07-08T00:43:08;9.23;;;5.82;;
9834;SDS011;69850;50.942;13.748;2023-07-08T00:49:57;7.57;;;6.38;;
9834;SDS011;69850;50.942;13.748;2023-07-08T00:53:31;7.97;;;5.55;;
9834;SDS011;69850;50.942;13.748;2023-07-08T01:00:17;9.98;;;5.63;;
9834;SDS011;69850;50.942;13.748;2023-07-08T01:03:44;7.80;;;5.53;;
9834;SDS011;69850;50.942;13.748;2023-07-08T01:07:09;6.80;;;5.45;;
9834;SDS011;69850;50.942;13.748;2023-07-08T01:10:32;7.65;;;5.43;;
9834;SDS011;69850;50.942;13.748;2023-07-08T01:13:56;8.07;;;5.60;;
9834;SDS011;69850;50.942;13.748;2023-07-08T01:17:18;7.28;;;5.60;;
9834;SDS011;69850;50.942;13.748;2023-07-08T01:20:40;9.82;;;5.85;;
9834;SDS011;69850;50.942;13.748;2023-07-08T01:24:04;7.72;;;5.43;;
9834;SDS011;69850;50.942;13.748;2023-07-08T01:27:26;7.32;;;5.32;;
9834;SDS011;69850;50.942;13.748;2023-07-08T01:30:47;7.00;;;5.40;;
9834;SDS011;69850;50.942;13.748;2023-07-08T01:34:10;8.15;;;5.93;;
9834;SDS011;69850;50.942;13.748;2023-07-08T01:37:33;9.38;;;5.88;;
9834;SDS011;69850;50.942;13.748;2023-07-08T01:40:57;7.30;;;6.10;;
9834;SDS011;69850;50.942;13.748;2023-07-08T01:44:22;8.18;;;5.93;;
9834;SDS011;69850;50.942;13.748;2023-07-08T01:47:47;9.88;;;5.90;;
9834;SDS011;69850;50.942;13.748;2023-07-08T01:51:10;8.77;;;5.68;;
9834;SDS011;69850;50.942;13.748;2023-07-08T01:54:32;7.65;;;5.85;;
9834;SDS011;69850;50.942;13.748;2023-07-08T01:57:52;8.95;;;6.20;;
9834;SDS011;69850;50.942;13.748;2023-07-08T02:01:13;10.20;;;6.00;;
9834;SDS011;69850;50.942;13.748;2023-07-08T02:04:34;8.27;;;5.78;;
9834;SDS011;69850;50.942;13.748;2023-07-08T02:07:55;8.30;;;5.50;;
9834;SDS011;69850;50.942;13.748;2023-07-08T02:11:16;7.50;;;5.30;;
9834;SDS011;69850;50.942;13.748;2023-07-08T02:14:37;7.95;;;5.32;;
9834;SDS011;69850;50.942;13.748;2023-07-08T02:17:58;6.38;;;4.97;;
9834;SDS011;69850;50.942;13.748;2023-07-08T02:21:18;7.80;;;5.35;;
9834;SDS011;69850;50.942;13.748;2023-07-08T02:24:39;8.23;;;5.55;;
9834;SDS011;69850;50.942;13.748;2023-07-08T02:27:59;7.13;;;5.22;;
9834;SDS011;69850;50.942;13.748;2023-07-08T02:31:20;8.00;;;5.53;;
9834;SDS011;69850;50.942;13.748;2023-07-08T02:34:42;7.95;;;6.25;;
9834;SDS011;69850;50.942;13.748;2023-07-08T02:38:02;8.85;;;5.38;;
9834;SDS011;69850;50.942;13.748;2023-07-08T02:41:23;7.68;;;5.28;;
9834;SDS011;69850;50.942;13.748;2023-07-08T02:44:44;6.95;;;5.18;;
9834;SDS011;69850;50.942;13.748;2023-07-08T02:48:04;9.02;;;5.53;;
9834;SDS011;69850;50.942;13.748;2023-07-08T02:51:26;7.10;;;5.75;;
9834;SDS011;69850;50.942;13.748;2023-07-08T02:54:46;7.38;;;5.40;;
9834;SDS011;69850;50.942;13.748;2023-07-08T02:58:07;9.00;;;5.57;;
9834;SDS011;69850;50.942;13.748;2023-07-08T03:01:29;7.07;;;4.95;;
9834;SDS011;69850;50.942;13.748;2023-07-08T03:04:51;8.30;;;4.80;;
9834;SDS011;69850;50.942;13.748;2023-07-08T03:08:14;8.13;;;4.85;;
9834;SDS011;69850;50.942;13.748;2023-07-08T03:11:35;6.63;;;4.97;;
9834;SDS011;69850;50.942;13.748;2023-07-08T03:14:56;5.50;;;4.47;;
9834;SDS011;69850;50.942;13.748;2023-07-08T03:18:16;7.00;;;4.72;;
9834;SDS011;69850;50.942;13.748;2023-07-08T03:21:38;6.90;;;5.15;;
9834;SDS011;69850;50.942;13.748;2023-07-08T03:24:59;7.50;;;5.03;;
9834;SDS011;69850;50.942;13.748;2023-07-08T03:28:20;6.43;;;4.55;;
9834;SDS011;69850;50.942;13.748;2023-07-08T03:31:41;8.73;;;5.00;;
9834;SDS011;69850;50.942;13.748;2023-07-08T03:35:02;7.18;;;5.10;;
9834;SDS011;69850;50.942;13.748;2023-07-08T03:38:23;7.10;;;4.80;;
9834;SDS011;69850;50.942;13.748;2023-07-08T03:41:44;6.57;;;4.65;;
9834;SDS011;69850;50.942;13.748;2023-07-08T03:45:05;6.35;;;4.70;;
9834;SDS011;69850;50.942;13.748;2023-07-08T03:48:26;25.08;;;4.63;;
9834;SDS011;69850;50.942;13.748;2023-07-08T03:51:48;47.40;;;5.13;;
9834;SDS011;69850;50.942;13.748;2023-07-08T03:55:11;6.28;;;3.83;;
9834;SDS011;69850;50.942;13.748;2023-07-08T03:58:32;5.85;;;3.72;;
9834;SDS011;69850;50.942;13.748;2023-07-08T04:01:53;5.63;;;3.60;;
9834;SDS011;69850;50.942;13.748;2023-07-08T04:05:17;6.75;;;4.10;;
9834;SDS011;69850;50.942;13.748;2023-07-08T04:08:41;4.65;;;3.22;;
9834;SDS011;69850;50.942;13.748;2023-07-08T04:12:02;4.57;;;3.45;;
9834;SDS011;69850;50.942;13.748;2023-07-08T04:15:23;6.53;;;3.60;;
9834;SDS011;69850;50.942;13.748;2023-07-08T04:18:45;11.82;;;3.97;;
9834;SDS011;69850;50.942;13.748;2023-07-08T04:22:06;7.85;;;3.80;;
9834;SDS011;69850;50.942;13.748;2023-07-08T04:25:28;4.93;;;3.35;;
9834;SDS011;69850;50.942;13.748;2023-07-08T04:28:48;3.53;;;3.22;;
9834;SDS011;69850;50.942;13.748;2023-07-08T04:32:10;4.88;;;3.88;;
9834;SDS011;69850;50.942;13.748;2023-07-08T04:35:31;5.60;;;3.70;;
9834;SDS011;69850;50.942;13.748;2023-07-08T04:38:51;6.72;;;3.95;;
9834;SDS011;69850;50.942;13.748;2023-07-08T04:42:13;5.43;;;4.00;;
9834;SDS011;69850;50.942;13.748;2023-07-08T04:45:35;4.88;;;3.80;;
9834;SDS011;69850;50.942;13.748;2023-07-08T04:48:57;4.72;;;3.65;;
9834;SDS011;69850;50.942;13.748;2023-07-08T04:52:20;5.63;;;4.50;;
9834;SDS011;69850;50.942;13.748;2023-07-08T04:55:42;6.78;;;3.88;;
9834;SDS011;69850;50.942;13.748;2023-07-08T04:59:05;5.75;;;4.13;;
9834;SDS011;69850;50.942;13.748;2023-07-08T05:02:28;28.08;;;5.55;;
9834;SDS011;69850;50.942;13.748;2023-07-08T05:05:49;4.20;;;3.80;;
9834;SDS011;69850;50.942;13.748;2023-07-08T05:09:09;6.00;;;3.65;;
9834;SDS011;69850;50.942;13.748;2023-07-08T05:12:30;5.47;;;4.00;;
9834;SDS011;69850;50.942;13.748;2023-07-08T05:15:51;5.35;;;3.75;;
9834;SDS011;69850;50.942;13.748;2023-07-08T05:19:11;4.88;;;3.85;;
9834;SDS011;69850;50.942;13.748;2023-07-08T05:22:32;5.70;;;4.50;;
9834;SDS011;69850;50.942;13.748;2023-07-08T05:25:53;6.30;;;4.10;;
9834;SDS011;69850;50.942;13.748;2023-07-08T05:29:14;5.97;;;4.15;;
9834;SDS011;69850;50.942;13.748;2023-07-08T05:32:35;6.80;;;4.25;;
9834;SDS011;69850;50.942;13.748;2023-07-08T05:35:56;7.97;;;4.22;;
9834;SDS011;69850;50.942;13.748;2023-07-08T05:39:16;9.00;;;4.03;;
9834;SDS011;69850;50.942;13.748;2023-07-08T05:42:37;8.95;;;4.32;;
9834;SDS011;69850;50.942;13.748;2023-07-08T05:45:58;6.05;;;3.97;;
9834;SDS011;69850;50.942;13.748;2023-07-08T05:49:20;6.65;;;4.03;;
9834;SDS011;69850;50.942;13.748;2023-07-08T05:52:40;4.65;;;3.80;;
9834;SDS011;69850;50.942;13.748;2023-07-08T05:56:02;6.95;;;4.35;;
9834;SDS011;69850;50.942;13.748;2023-07-08T05:59:23;4.22;;;3.70;;
9834;SDS011;69850;50.942;13.748;2023-07-08T06:02:43;4.72;;;3.65;;
9834;SDS011;69850;50.942;13.748;2023-07-08T06:06:04;11.75;;;4.40;;
9834;SDS011;69850;50.942;13.748;2023-07-08T06:09:26;8.90;;;4.30;;
9834;SDS011;69850;50.942;13.748;2023-07-08T06:12:47;9.10;;;4.05;;
9834;SDS011;69850;50.942;13.748;2023-07-08T06:16:07;6.60;;;4.07;;
9834;SDS011;69850;50.942;13.748;2023-07-08T06:19:28;6.55;;;4.45;;
9834;SDS011;69850;50.942;13.748;2023-07-08T06:22:49;6.57;;;4.20;;
9834;SDS011;69850;50.942;13.748;2023-07-08T06:26:09;8.07;;;4.00;;
9834;SDS011;69850;50.942;13.748;2023-07-08T06:29:30;5.65;;;4.07;;
9834;SDS011;69850;50.942;13.748;2023-07-08T06:32:51;6.55;;;4.18;;
9834;SDS011;69850;50.942;13.748;2023-07-08T06:36:11;4.50;;;4.03;;
9834;SDS011;69850;50.942;13.748;2023-07-08T06:39:32;5.43;;;4.20;;
9834;SDS011;69850;50.942;13.748;2023-07-08T06:42:53;6.53;;;4.32;;
9834;SDS011;69850;50.942;13.748;2023-07-08T06:46:32;8.10;;;4.20;;
9834;SDS011;69850;50.942;13.748;2023-07-08T06:49:52;7.95;;;4.00;;
9834;SDS011;69850;50.942;13.748;2023-07-08T06:53:13;8.57;;;4.47;;
9834;SDS011;69850;50.942;13.748;2023-07-08T06:56:35;5.80;;;3.90;;
9834;SDS011;69850;50.942;13.748;2023-07-08T06:59:55;4.53;;;3.70;;
9834;SDS011;69850;50.942;13.748;2023-07-08T07:03:16;5.05;;;4.15;;
9834;SDS011;69850;50.942;13.748;2023-07-08T07:06:37;6.13;;;3.92;;
9834;SDS011;69850;50.942;13.748;2023-07-08T07:09:57;7.50;;;4.18;;
9834;SDS011;69850;50.942;13.748;2023-07-08T07:13:18;5.82;;;4.25;;
9834;SDS011;69850;50.942;13.748;2023-07-08T07:16:39;7.78;;;4.50;;
9834;SDS011;69850;50.942;13.748;2023-07-08T07:19:59;7.30;;;4.07;;
9834;SDS011;69850;50.942;13.748;2023-07-08T07:23:20;7.00;;;3.80;;
9834;SDS011;69850;50.942;13.748;2023-07-08T07:26:41;6.30;;;4.40;;
9834;SDS011;69850;50.942;13.748;2023-07-08T07:30:01;4.45;;;3.72;;
9834;SDS011;69850;50.942;13.748;2023-07-08T07:33:23;6.07;;;4.07;;
9834;SDS011;69850;50.942;13.748;2023-07-08T07:36:43;5.82;;;4.20;;
9834;SDS011;69850;50.942;13.748;2023-07-08T07:40:04;5.50;;;4.03;;
9834;SDS011;69850;50.942;13.748;2023-07-08T07:43:27;6.05;;;4.18;;
9834;SDS011;69850;50.942;13.748;2023-07-08T07:46:47;4.93;;;3.97;;
9834;SDS011;69850;50.942;13.748;2023-07-08T07:50:08;5.32;;;4.10;;
9834;SDS011;69850;50.942;13.748;2023-07-08T07:53:30;7.15;;;4.28;;
9834;SDS011;69850;50.942;13.748;2023-07-08T07:56:51;10.02;;;3.97;;
9834;SDS011;69850;50.942;13.748;2023-07-08T08:00:12;6.32;;;4.32;;
9834;SDS011;69850;50.942;13.748;2023-07-08T08:03:34;5.30;;;4.38;;
9834;SDS011;69850;50.942;13.748;2023-07-08T08:06:54;6.55;;;4.55;;
9834;SDS011;69850;50.942;13.748;2023-07-08T08:10:15;7.22;;;4.68;;
9834;SDS011;69850;50.942;13.748;2023-07-08T08:13:36;7.93;;;4.35;;
9834;SDS011;69850;50.942;13.748;2023-07-08T08:16:57;7.00;;;4.93;;
9834;SDS011;69850;50.942;13.748;2023-07-08T08:20:23;7.15;;;4.45;;
9834;SDS011;69850;50.942;13.748;2023-07-08T08:23:45;5.45;;;4.43;;
9834;SDS011;69850;50.942;13.748;2023-07-08T08:27:05;6.63;;;4.80;;
9834;SDS011;69850;50.942;13.748;2023-07-08T08:30:26;5.90;;;4.35;;
9834;SDS011;69850;50.942;13.748;2023-07-08T08:33:47;7.13;;;4.60;;
9834;SDS011;69850;50.942;13.748;2023-07-08T08:37:08;5.43;;;4.85;;
9834;SDS011;69850;50.942;13.748;2023-07-08T08:40:28;5.93;;;4.45;;
9834;SDS011;69850;50.942;13.748;2023-07-08T08:43:50;7.60;;;4.45;;
9834;SDS011;69850;50.942;13.748;2023-07-08T08:51:01;4.85;;;4.15;;
9834;SDS011;69850;50.942;13.748;2023-07-08T08:54:26;6.10;;;4.25;;
9834;SDS011;69850;50.942;13.748;2023-07-08T09:01:20;5.35;;;4.30;;
9834;SDS011;69850;50.942;13.748;2023-07-08T09:04:40;5.93;;;4.15;;
9834;SDS011;69850;50.942;13.748;2023-07-08T09:14:57;5.35;;;4.03;;
9834;SDS011;69850;50.942;13.748;2023-07-08T09:18:27;7.00;;;4.70;;
9834;SDS011;69850;50.942;13.748;2023-07-08T09:28:41;5.30;;;4.65;;
9834;SDS011;69850;50.942;13.748;2023-07-08T09:32:22;4.97;;;4.13;;
9834;SDS011;69850;50.942;13.748;2023-07-08T09:35:45;10.90;;;4.20;;
9834;SDS011;69850;50.942;13.748;2023-07-08T09:39:11;6.00;;;3.88;;
9834;SDS011;69850;50.942;13.748;2023-07-08T09:42:41;6.15;;;3.70;;
9834;SDS011;69850;50.942;13.748;2023-07-08T09:46:02;5.25;;;3.33;;
9834;SDS011;69850;50.942;13.748;2023-07-08T09:52:44;5.47;;;3.97;;
9834;SDS011;69850;50.942;13.748;2023-07-08T09:56:06;6.43;;;3.80;;
9834;SDS011;69850;50.942;13.748;2023-07-08T09:59:30;4.45;;;3.88;;
9834;SDS011;69850;50.942;13.748;2023-07-08T10:03:01;7.68;;;4.10;;
9834;SDS011;69850;50.942;13.748;2023-07-08T10:06:26;11.43;;;3.90;;
9834;SDS011;69850;50.942;13.748;2023-07-08T10:09:51;4.95;;;3.60;;
9834;SDS011;69850;50.942;13.748;2023-07-08T10:16:58;5.13;;;3.80;;
9834;SDS011;69850;50.942;13.748;2023-07-08T10:20:18;5.28;;;3.90;;
9834;SDS011;69850;50.942;13.748;2023-07-08T10:27:57;4.70;;;3.58;;
9834;SDS011;69850;50.942;13.748;2023-07-08T10:31:56;5.70;;;3.67;;
9834;SDS011;69850;50.942;13.748;2023-07-08T10:35:33;4.97;;;3.67;;
9834;SDS011;69850;50.942;13.748;2023-07-08T10:50:19;4.68;;;3.60;;
9834;SDS011;69850;50.942;13.748;2023-07-08T11:04:11;4.32;;;3.38;;
9834;SDS011;69850;50.942;13.748;2023-07-08T11:07:41;6.00;;;3.63;;
9834;SDS011;69850;50.942;13.748;2023-07-08T11:21:55;4.35;;;3.85;;
9834;SDS011;69850;50.942;13.748;2023-07-08T11:25:19;4.07;;;3.67;;
9834;SDS011;69850;50.942;13.748;2023-07-08T11:28:41;5.43;;;4.00;;
9834;SDS011;69850;50.942;13.748;2023-07-08T11:32:02;7.05;;;3.50;;
9834;SDS011;69850;50.942;13.748;2023-07-08T11:35:44;4.30;;;3.90;;
9834;SDS011;69850;50.942;13.748;2023-07-08T11:39:25;5.03;;;3.95;;
9834;SDS011;69850;50.942;13.748;2023-07-08T11:42:51;7.22;;;4.50;;
9834;SDS011;69850;50.942;13.748;2023-07-08T11:46:20;6.35;;;3.83;;
9834;SDS011;69850;50.942;13.748;2023-07-08T11:49:46;5.80;;;3.90;;
9834;SDS011;69850;50.942;13.748;2023-07-08T11:56:50;4.55;;;3.33;;
9834;SDS011;69850;50.942;13.748;2023-07-08T12:00:24;7.47;;;3.85;;
9834;SDS011;69850;50.942;13.748;2023-07-08T12:03:53;5.97;;;3.50;;
9834;SDS011;69850;50.942;13.748;2023-07-08T12:07:20;6.93;;;3.85;;
9834;SDS011;69850;50.942;13.748;2023-07-08T12:10:52;4.35;;;3.60;;
9834;SDS011;69850;50.942;13.748;2023-07-08T12:14:13;5.53;;;4.03;;
9834;SDS011;69850;50.942;13.748;2023-07-08T12:17:35;7.22;;;3.90;;
9834;SDS011;69850;50.942;13.748;2023-07-08T12:20:58;7.20;;;4.10;;
9834;SDS011;69850;50.942;13.748;2023-07-08T12:24:21;7.15;;;4.30;;
9834;SDS011;69850;50.942;13.748;2023-07-08T12:27:46;6.63;;;4.25;;
9834;SDS011;69850;50.942;13.748;2023-07-08T12:31:13;8.57;;;4.22;;
9834;SDS011;69850;50.942;13.748;2023-07-08T12:34:38;7.57;;;3.85;;
9834;SDS011;69850;50.942;13.748;2023-07-08T12:38:00;10.32;;;4.35;;
9834;SDS011;69850;50.942;13.748;2023-07-08T12:41:28;5.90;;;4.05;;
9834;SDS011;69850;50.942;13.748;2023-07-08T12:44:49;3.90;;;3.50;;
9834;SDS011;69850;50.942;13.748;2023-07-08T12:48:10;5.03;;;3.90;;
9834;SDS011;69850;50.942;13.748;2023-07-08T12:51:31;4.72;;;3.53;;
9834;SDS011;69850;50.942;13.748;2023-07-08T12:54:51;5.43;;;3.80;;
9834;SDS011;69850;50.942;13.748;2023-07-08T12:58:13;6.68;;;3.90;;
9834;SDS011;69850;50.942;13.748;2023-07-08T13:01:36;5.70;;;4.03;;
9834;SDS011;69850;50.942;13.748;2023-07-08T13:04:59;6.35;;;4.32;;
9834;SDS011;69850;50.942;13.748;2023-07-08T13:08:24;6.38;;;3.95;;
9834;SDS011;69850;50.942;13.748;2023-07-08T13:11:46;5.30;;;4.32;;
9834;SDS011;69850;50.942;13.748;2023-07-08T13:15:16;5.68;;;4.80;;
9834;SDS011;69850;50.942;13.748;2023-07-08T13:18:41;4.85;;;4.03;;
9834;SDS011;69850;50.942;13.748;2023-07-08T13:22:02;4.57;;;4.10;;
9834;SDS011;69850;50.942;13.748;2023-07-08T13:25:30;5.45;;;4.50;;
9834;SDS011;69850;50.942;13.748;2023-07-08T13:28:58;4.93;;;3.85;;
9834;SDS011;69850;50.942;13.748;2023-07-08T13:32:21;4.30;;;3.90;;
9834;SDS011;69850;50.942;13.748;2023-07-08T13:35:50;6.80;;;3.85;;
9834;SDS011;69850;50.942;13.748;2023-07-08T13:39:17;7.25;;;4.60;;
9834;SDS011;69850;50.942;13.748;2023-07-08T13:42:51;7.47;;;3.90;;
9834;SDS011;69850;50.942;13.748;2023-07-08T13:49:59;5.50;;;4.00;;
9834;SDS011;69850;50.942;13.748;2023-07-08T13:57:32;7.32;;;4.20;;
9834;SDS011;69850;50.942;13.748;2023-07-08T14:00:55;5.38;;;4.10;;
9834;SDS011;69850;50.942;13.748;2023-07-08T14:04:18;6.68;;;3.78;;
9834;SDS011;69850;50.942;13.748;2023-07-08T14:07:49;5.43;;;4.00;;
9834;SDS011;69850;50.942;13.748;2023-07-08T14:11:10;4.80;;;3.80;;
9834;SDS011;69850;50.942;13.748;2023-07-08T14:14:31;4.40;;;3.80;;
9834;SDS011;69850;50.942;13.748;2023-07-08T14:17:51;4.53;;;3.92;;
9834;SDS011;69850;50.942;13.748;2023-07-08T14:21:12;6.03;;;4.10;;
9834;SDS011;69850;50.942;13.748;2023-07-08T14:24:32;5.72;;;4.03;;
9834;SDS011;69850;50.942;13.748;2023-07-08T14:27:53;7.47;;;4.15;;
9834;SDS011;69850;50.942;13.748;2023-07-08T14:31:14;5.70;;;4.03;;
9834;SDS011;69850;50.942;13.748;2023-07-08T14:34:40;6.30;;;3.97;;
9834;SDS011;69850;50.942;13.748;2023-07-08T14:38:01;7.45;;;4.00;;
9834;SDS011;69850;50.942;13.748;2023-07-08T14:41:29;6.47;;;3.92;;
9834;SDS011;69850;50.942;13.748;2023-07-08T14:44:50;5.25;;;4.07;;
9834;SDS011;69850;50.942;13.748;2023-07-08T14:48:13;5.85;;;4.15;;
9834;SDS011;69850;50.942;13.748;2023-07-08T14:51:34;5.35;;;4.00;;
9834;SDS011;69850;50.942;13.748;2023-07-08T14:54:55;7.57;;;4.45;;
9834;SDS011;69850;50.942;13.748;2023-07-08T14:58:21;6.68;;;4.18;;
9834;SDS011;69850;50.942;13.748;2023-07-08T15:01:44;5.57;;;4.20;;
9834;SDS011;69850;50.942;13.748;2023-07-08T15:05:07;7.75;;;4.25;;
9834;SDS011;69850;50.942;13.748;2023-07-08T15:08:32;7.45;;;4.07;;
9834;SDS011;69850;50.942;13.748;2023-07-08T15:11:54;5.70;;;4.38;;
9834;SDS011;69850;50.942;13.748;2023-07-08T15:15:23;6.28;;;4.22;;
9834;SDS011;69850;50.942;13.748;2023-07-08T15:18:50;8.25;;;4.32;;
9834;SDS011;69850;50.942;13.748;2023-07-08T15:22:11;4.80;;;4.18;;
9834;SDS011;69850;50.942;13.748;2023-07-08T15:25:32;4.68;;;4.05;;
9834;SDS011;69850;50.942;13.748;2023-07-08T15:28:55;6.55;;;4.05;;
9834;SDS011;69850;50.942;13.748;2023-07-08T15:32:16;8.15;;;4.45;;
9834;SDS011;69850;50.942;13.748;2023-07-08T15:35:39;5.28;;;4.40;;
9834;SDS011;69850;50.942;13.748;2023-07-08T15:39:00;5.57;;;4.10;;
9834;SDS011;69850;50.942;13.748;2023-07-08T15:42:21;6.88;;;4.10;;
9834;SDS011;69850;50.942;13.748;2023-07-08T15:45:42;5.32;;;4.13;;
9834;SDS011;69850;50.942;13.748;2023-07-08T15:49:23;6.07;;;4.30;;
9834;SDS011;69850;50.942;13.748;2023-07-08T15:52:44;7.65;;;4.50;;
9834;SDS011;69850;50.942;13.748;2023-07-08T15:56:07;5.20;;;4.50;;
9834;SDS011;69850;50.942;13.748;2023-07-08T15:59:31;5.30;;;4.40;;
9834;SDS011;69850;50.942;13.748;2023-07-08T16:02:53;7.78;;;4.20;;
9834;SDS011;69850;50.942;13.748;2023-07-08T16:06:19;7.28;;;4.70;;
9834;SDS011;69850;50.942;13.748;2023-07-08T16:09:39;6.70;;;4.40;;
9834;SDS011;69850;50.942;13.748;2023-07-08T16:13:00;8.13;;;4.55;;
9834;SDS011;69850;50.942;13.748;2023-07-08T16:16:23;6.72;;;4.20;;
9834;SDS011;69850;50.942;13.748;2023-07-08T16:19:45;4.90;;;4.22;;
9834;SDS011;69850;50.942;13.748;2023-07-08T16:23:06;9.63;;;4.25;;
9834;SDS011;69850;50.942;13.748;2023-07-08T16:26:26;8.57;;;4.38;;
9834;SDS011;69850;50.942;13.748;2023-07-08T16:29:47;5.05;;;4.25;;
9834;SDS011;69850;50.942;13.748;2023-07-08T16:33:08;4.97;;;4.25;;
9834;SDS011;69850;50.942;13.748;2023-07-08T16:36:29;4.97;;;3.80;;
9834;SDS011;69850;50.942;13.748;2023-07-08T16:39:50;5.07;;;4.40;;
9834;SDS011;69850;50.942;13.748;2023-07-08T16:43:24;5.90;;;4.28;;
9834;SDS011;69850;50.942;13.748;2023-07-08T16:46:48;8.73;;;4.20;;
9834;SDS011;69850;50.942;13.748;2023-07-08T16:50:09;6.78;;;4.57;;
9834;SDS011;69850;50.942;13.748;2023-07-08T16:53:30;8.35;;;4.75;;
9834;SDS011;69850;50.942;13.748;2023-07-08T16:56:50;5.03;;;4.28;;
9834;SDS011;69850;50.942;13.748;2023-07-08T17:00:12;6.75;;;4.43;;
9834;SDS011;69850;50.942;13.748;2023-07-08T17:03:34;8.05;;;4.20;;
9834;SDS011;69850;50.942;13.748;2023-07-08T17:06:55;8.85;;;4.20;;
9834;SDS011;69850;50.942;13.748;2023-07-08T17:10:18;5.07;;;4.53;;
9834;SDS011;69850;50.942;13.748;2023-07-08T17:13:39;6.85;;;4.47;;
9834;SDS011;69850;50.942;13.748;2023-07-08T17:17:02;7.97;;;4.60;;
9834;SDS011;69850;50.942;13.748;2023-07-08T17:20:24;5.40;;;4.10;;
9834;SDS011;69850;50.942;13.748;2023-07-08T17:23:49;9.18;;;4.43;;
9834;SDS011;69850;50.942;13.748;2023-07-08T17:27:09;5.57;;;4.20;;
9834;SDS011;69850;50.942;13.748;2023-07-08T17:30:30;6.35;;;4.15;;
9834;SDS011;69850;50.942;13.748;2023-07-08T17:33:53;4.55;;;3.97;;
9834;SDS011;69850;50.942;13.748;2023-07-08T17:37:18;6.32;;;3.95;;
9834;SDS011;69850;50.942;13.748;2023-07-08T17:40:39;7.97;;;4.10;;
9834;SDS011;69850;50.942;13.748;2023-07-08T17:43:59;5.28;;;3.85;;
9834;SDS011;69850;50.942;13.748;2023-07-08T17:47:20;7.50;;;4.18;;
9834;SDS011;69850;50.942;13.748;2023-07-08T17:50:41;7.53;;;3.97;;
9834;SDS011;69850;50.942;13.748;2023-07-08T17:54:01;5.30;;;4.20;;
9834;SDS011;69850;50.942;13.748;2023-07-08T17:57:22;5.75;;;4.20;;
9834;SDS011;69850;50.942;13.748;2023-07-08T18:00:43;9.18;;;8.25;;
9834;SDS011;69850;50.942;13.748;2023-07-08T18:04:05;6.55;;;5.85;;
9834;SDS011;69850;50.942;13.748;2023-07-08T18:07:27;4.85;;;4.13;;
9834;SDS011;69850;50.942;13.748;2023-07-08T18:10:48;4.95;;;4.05;;
9834;SDS011;69850;50.942;13.748;2023-07-08T18:14:09;6.30;;;4.43;;
9834;SDS011;69850;50.942;13.748;2023-07-08T18:22:13;6.18;;;5.32;;
9834;SDS011;69850;50.942;13.748;2023-07-08T18:25:33;5.95;;;3.95;;
9834;SDS011;69850;50.942;13.748;2023-07-08T18:28:55;7.88;;;4.10;;
9834;SDS011;69850;50.942;13.748;2023-07-08T18:32:15;6.40;;;4.10;;
9834;SDS011;69850;50.942;13.748;2023-07-08T18:35:36;8.93;;;4.30;;
9834;SDS011;69850;50.942;13.748;2023-07-08T18:38:57;8.32;;;4.40;;
9834;SDS011;69850;50.942;13.748;2023-07-08T18:42:18;5.13;;;4.63;;
9834;SDS011;69850;50.942;13.748;2023-07-08T18:45:39;5.63;;;4.45;;
9834;SDS011;69850;50.942;13.748;2023-07-08T18:48:59;4.95;;;4.45;;
9834;SDS011;69850;50.942;13.748;2023-07-08T18:52:23;12.63;;;5.00;;
9834;SDS011;69850;50.942;13.748;2023-07-08T18:55:44;7.47;;;4.70;;
9834;SDS011;69850;50.942;13.748;2023-07-08T18:59:05;8.05;;;5.63;;
9834;SDS011;69850;50.942;13.748;2023-07-08T19:02:33;10.43;;;5.38;;
9834;SDS011;69850;50.942;13.748;2023-07-08T19:05:55;11.45;;;5.00;;
9834;SDS011;69850;50.942;13.748;2023-07-08T19:09:15;7.75;;;4.93;;
9834;SDS011;69850;50.942;13.748;2023-07-08T19:12:36;6.00;;;4.30;;
9834;SDS011;69850;50.942;13.748;2023-07-08T19:15:57;13.07;;;5.78;;
9834;SDS011;69850;50.942;13.748;2023-07-08T19:19:18;6.65;;;4.85;;
9834;SDS011;69850;50.942;13.748;2023-07-08T19:22:40;9.55;;;4.78;;
9834;SDS011;69850;50.942;13.748;2023-07-08T19:26:01;11.73;;;4.85;;
9834;SDS011;69850;50.942;13.748;2023-07-08T19:29:22;8.82;;;5.03;;
9834;SDS011;69850;50.942;13.748;2023-07-08T19:32:47;9.63;;;4.60;;
9834;SDS011;69850;50.942;13.748;2023-07-08T19:36:10;7.28;;;4.65;;
9834;SDS011;69850;50.942;13.748;2023-07-08T19:39:31;5.53;;;4.60;;
9834;SDS011;69850;50.942;13.748;2023-07-08T19:42:52;8.70;;;5.47;;
9834;SDS011;69850;50.942;13.748;2023-07-08T19:46:14;7.88;;;5.70;;
9834;SDS011;69850;50.942;13.748;2023-07-08T19:49:35;8.60;;;5.80;;
9834;SDS011;69850;50.942;13.748;2023-07-08T19:52:57;6.55;;;4.75;;
9834;SDS011;69850;50.942;13.748;2023-07-08T19:56:19;44.60;;;5.90;;
9834;SDS011;69850;50.942;13.748;2023-07-08T19:59:43;8.02;;;4.75;;
9834;SDS011;69850;50.942;13.748;2023-07-08T20:03:04;8.90;;;4.90;;
9834;SDS011;69850;50.942;13.748;2023-07-08T20:06:25;7.15;;;4.90;;
9834;SDS011;69850;50.942;13.748;2023-07-08T20:09:46;9.77;;;5.10;;
9834;SDS011;69850;50.942;13.748;2023-07-08T20:13:08;9.90;;;4.90;;
9834;SDS011;69850;50.942;13.748;2023-07-08T20:16:30;10.73;;;4.90;;
9834;SDS011;69850;50.942;13.748;2023-07-08T20:19:51;10.55;;;5.30;;
9834;SDS011;69850;50.942;13.748;2023-07-08T20:23:13;11.02;;;5.40;;
9834;SDS011;69850;50.942;13.748;2023-07-08T20:26:34;10.95;;;5.55;;
9834;SDS011;69850;50.942;13.748;2023-07-08T20:29:55;9.18;;;5.30;;
9834;SDS011;69850;50.942;13.748;2023-07-08T20:33:16;7.95;;;5.90;;
9834;SDS011;69850;50.942;13.748;2023-07-08T20:36:37;8.00;;;5.43;;
9834;SDS011;69850;50.942;13.748;2023-07-08T20:39:57;5.55;;;4.72;;
9834;SDS011;69850;50.942;13.748;2023-07-08T20:43:19;6.60;;;5.07;;
9834;SDS011;69850;50.942;13.748;2023-07-08T20:46:40;6.90;;;4.68;;
9834;SDS011;69850;50.942;13.748;2023-07-08T20:50:08;11.30;;;6.18;;
9834;SDS011;69850;50.942;13.748;2023-07-08T20:53:38;7.15;;;4.72;;
9834;SDS011;69850;50.942;13.748;2023-07-08T20:56:59;7.20;;;4.93;;
9834;SDS011;69850;50.942;13.748;2023-07-08T21:00:27;6.18;;;4.95;;
9834;SDS011;69850;50.942;13.748;2023-07-08T21:03:49;6.03;;;4.90;;
9834;SDS011;69850;50.942;13.748;2023-07-08T21:07:10;5.75;;;4.80;;
9834;SDS011;69850;50.942;13.748;2023-07-08T21:10:30;12.32;;;7.65;;
9834;SDS011;69850;50.942;13.748;2023-07-08T21:13:51;11.10;;;8.07;;
9834;SDS011;69850;50.942;13.748;2023-07-08T21:17:15;9.15;;;6.38;;
9834;SDS011;69850;50.942;13.748;2023-07-08T21:20:37;13.85;;;6.78;;
9834;SDS011;69850;50.942;13.748;2023-07-08T21:23:57;10.10;;;7.30;;
9834;SDS011;69850;50.942;13.748;2023-07-08T21:27:19;9.80;;;6.60;;
9834;SDS011;69850;50.942;13.748;2023-07-08T21:30:41;11.50;;;6.78;;
9834;SDS011;69850;50.942;13.748;2023-07-08T21:34:01;12.30;;;4.95;;
9834;SDS011;69850;50.942;13.748;2023-07-08T21:37:22;8.25;;;4.88;;
9834;SDS011;69850;50.942;13.748;2023-07-08T21:40:46;9.38;;;5.70;;
9834;SDS011;69850;50.942;13.748;2023-07-08T21:44:17;7.25;;;5.35;;
9834;SDS011;69850;50.942;13.748;2023-07-08T21:47:38;6.80;;;5.20;;